createdAt,value
2022-09-07T00:00:10.264Z,1.70
2022-09-07T00:02:36.870Z,1.87
2022-09-07T00:05:03.985Z,2.37
2022-09-07T00:07:30.791Z,1.93
2022-09-07T00:09:57.327Z,1.13
2022-09-07T00:12:23.795Z,1.57
2022-09-07T00:14:50.244Z,1.57
2022-09-07T00:17:16.748Z,1.50
2022-09-07T00:19:43.393Z,1.70
2022-09-07T00:22:09.957Z,2.00
2022-09-07T00:24:36.465Z,1.93
2022-09-07T00:27:02.945Z,1.53
2022-09-07T00:29:29.555Z,1.40
2022-09-07T00:31:56.039Z,1.63
2022-09-07T00:34:22.634Z,1.60
2022-09-07T00:36:49.142Z,1.87
2022-09-07T00:39:15.554Z,1.63
2022-09-07T00:41:42.064Z,1.87
2022-09-07T00:44:56.606Z,1.40
2022-09-07T00:47:28.735Z,1.57
2022-09-07T00:50:05.509Z,1.70
2022-09-07T00:52:35.009Z,1.80
2022-09-07T00:55:06.558Z,1.60
2022-09-07T00:57:34.206Z,1.20
2022-09-07T01:00:01.382Z,1.60
2022-09-07T01:02:28.121Z,1.20
2022-09-07T01:05:07.542Z,1.40
2022-09-07T01:07:36.815Z,1.50
2022-09-07T01:10:04.079Z,1.60
2022-09-07T01:12:31.523Z,1.70
2022-09-07T01:14:57.971Z,1.40
2022-09-07T01:17:36.657Z,1.63
2022-09-07T01:20:23.560Z,1.93
2022-09-07T01:23:44.962Z,1.50
2022-09-07T01:26:30.129Z,1.17
2022-09-07T01:29:07.993Z,1.37
2022-09-07T01:31:44.246Z,1.30
2022-09-07T01:34:25.042Z,1.23
2022-09-07T01:37:22.591Z,1.40
2022-09-07T01:40:03.046Z,1.17
2022-09-07T01:42:33.749Z,1.40
2022-09-07T01:45:02.225Z,1.20
2022-09-07T01:47:41.824Z,1.50
2022-09-07T01:50:37.483Z,1.30
2022-09-07T01:53:17.148Z,1.10
2022-09-07T01:56:03.945Z,1.20
2022-09-07T01:58:39.468Z,1.23
2022-09-07T02:01:25.327Z,1.30
2022-09-07T02:04:15.836Z,1.20
2022-09-07T02:06:49.635Z,1.00
2022-09-07T02:09:28.649Z,1.10
2022-09-07T02:11:55.637Z,1.10
2022-09-07T02:14:31.961Z,1.10
2022-09-07T02:17:10.854Z,1.30
2022-09-07T02:19:42.991Z,1.13
2022-09-07T02:22:16.170Z,1.20
2022-09-07T02:24:48.247Z,0.97
2022-09-07T02:27:22.673Z,1.20
2022-09-07T02:29:49.111Z,1.10
2022-09-07T02:32:15.681Z,1.20
2022-09-07T02:34:42.152Z,1.10
2022-09-07T02:37:10.915Z,1.10
2022-09-07T02:39:38.615Z,1.20
2022-09-07T02:42:05.470Z,1.00
2022-09-07T02:44:36.180Z,1.10
2022-09-07T02:47:32.273Z,0.90
2022-09-07T02:50:10.948Z,1.13
2022-09-07T02:52:46.399Z,1.00
2022-09-07T02:55:31.737Z,1.10
2022-09-07T02:58:23.639Z,1.20
2022-09-07T03:01:03.546Z,1.13
2022-09-07T03:04:02.434Z,1.10
2022-09-07T03:06:38.313Z,1.20
2022-09-07T03:09:10.023Z,1.20
2022-09-07T03:11:37.725Z,1.07
2022-09-07T03:14:16.572Z,1.30
2022-09-07T03:16:43.760Z,1.17
2022-09-07T03:19:10.283Z,1.20
2022-09-07T03:21:36.711Z,1.40
2022-09-07T03:24:03.445Z,1.10
2022-09-07T03:26:29.901Z,1.20
2022-09-07T03:28:56.567Z,1.60
2022-09-07T03:31:23.053Z,1.30
2022-09-07T03:33:49.587Z,1.07
2022-09-07T03:36:16.255Z,1.40
2022-09-07T03:38:42.705Z,1.20
2022-09-07T03:41:09.106Z,1.20
2022-09-07T03:43:35.982Z,1.40
2022-09-07T03:46:05.066Z,1.20
2022-09-07T03:48:36.342Z,1.47
2022-09-07T03:51:05.959Z,1.50
2022-09-07T03:53:33.877Z,1.70
2022-09-07T03:56:02.081Z,1.83
2022-09-07T03:58:30.133Z,1.90
2022-09-07T04:00:57.300Z,1.87
2022-09-07T04:03:23.861Z,1.90
2022-09-07T04:05:50.518Z,2.10
2022-09-07T04:08:17.163Z,2.10
2022-09-07T04:10:43.685Z,2.10
2022-09-07T04:13:10.368Z,1.90
2022-09-07T04:15:37.201Z,2.03
2022-09-07T04:18:04.213Z,2.33
2022-09-07T04:20:31.389Z,2.30
2022-09-07T04:22:57.868Z,2.30
2022-09-07T04:25:24.384Z,2.20
2022-09-07T04:27:51.118Z,2.80
2022-09-07T04:30:17.590Z,2.40
2022-09-07T04:32:46.375Z,2.43
2022-09-07T04:35:13.122Z,2.47
2022-09-07T04:37:39.820Z,2.53
2022-09-07T04:40:06.635Z,2.40
2022-09-07T04:42:33.160Z,2.80
2022-09-07T04:44:59.664Z,3.33
2022-09-07T04:47:26.272Z,2.97
2022-09-07T04:49:52.896Z,2.80
2022-09-07T04:52:19.387Z,3.40
2022-09-07T04:54:49.513Z,3.17
2022-09-07T04:57:16.402Z,3.20
2022-09-07T04:59:42.865Z,2.93
2022-09-07T05:02:09.450Z,3.50
2022-09-07T05:04:36.473Z,3.17
2022-09-07T05:07:02.904Z,3.63
2022-09-07T05:09:29.347Z,3.07
2022-09-07T05:11:55.887Z,2.63
2022-09-07T05:14:22.425Z,2.90
2022-09-07T05:16:49.385Z,3.73
2022-09-07T05:19:16.217Z,3.20
2022-09-07T05:21:42.779Z,2.80
2022-09-07T05:24:10.102Z,3.40
2022-09-07T05:26:37.263Z,3.17
2022-09-07T05:31:52.248Z,2.93
2022-09-07T05:34:34.558Z,2.27
2022-09-07T05:37:01.619Z,2.93
2022-09-07T05:39:28.675Z,2.90
2022-09-07T05:41:55.522Z,2.93
2022-09-07T05:47:09.697Z,2.37
2022-09-07T05:49:36.401Z,2.80
2022-09-07T05:52:03.414Z,2.30
2022-09-07T05:54:29.836Z,2.43
2022-09-07T05:56:56.321Z,2.10
2022-09-07T05:59:22.798Z,2.10
2022-09-07T06:01:49.508Z,2.50
2022-09-07T06:04:16.243Z,2.00
2022-09-07T06:06:54.648Z,2.90
2022-09-07T06:09:31.445Z,2.67
2022-09-07T06:11:57.864Z,2.87
2022-09-07T06:14:25.057Z,2.90
2022-09-07T06:16:51.494Z,2.87
2022-09-07T06:19:17.996Z,3.00
2022-09-07T06:21:44.438Z,3.93
2022-09-07T06:24:11.098Z,3.33
2022-09-07T06:26:37.563Z,4.57
2022-09-07T06:29:04.082Z,5.33
2022-09-07T06:31:30.836Z,6.03
2022-09-07T06:33:57.436Z,7.33
2022-09-07T06:36:27.762Z,8.23
2022-09-07T06:38:58.874Z,8.50
2022-09-07T06:44:14.847Z,9.47
2022-09-07T06:49:27.768Z,10.33
2022-09-07T06:51:54.285Z,9.87
2022-09-07T06:57:09.443Z,9.13
2022-09-07T06:59:36.586Z,9.20
2022-09-07T07:02:03.580Z,7.93
2022-09-07T07:04:30.153Z,8.40
2022-09-07T07:06:56.898Z,8.10
2022-09-07T07:09:23.317Z,7.80
2022-09-07T07:11:49.770Z,7.40
2022-09-07T07:14:17.852Z,7.27
2022-09-07T07:16:44.879Z,8.50
2022-09-07T07:19:11.402Z,8.33
2022-09-07T07:21:55.380Z,9.30
2022-09-07T07:24:24.269Z,9.07
2022-09-07T07:26:50.782Z,8.70
2022-09-07T07:29:18.909Z,9.30
2022-09-07T07:31:47.117Z,8.43
2022-09-07T07:34:15.220Z,8.37
2022-09-07T07:36:41.799Z,8.57
2022-09-07T07:41:58.621Z,8.10
2022-09-07T07:44:28.133Z,7.77
2022-09-07T07:46:54.633Z,8.20
2022-09-07T07:49:21.180Z,8.10
2022-09-07T07:54:37.511Z,8.43
2022-09-07T07:57:07.640Z,9.10
2022-09-07T07:59:35.157Z,8.67
2022-09-07T08:02:05.255Z,8.47
2022-09-07T08:04:33.624Z,8.47
2022-09-07T08:07:00.047Z,7.83
2022-09-07T08:09:26.715Z,7.20
2022-09-07T08:11:53.450Z,7.17
2022-09-07T08:14:19.818Z,7.83
2022-09-07T08:16:46.380Z,8.30
2022-09-07T08:19:13.246Z,6.60
2022-09-07T08:21:39.618Z,6.33
2022-09-07T08:24:06.102Z,5.77
2022-09-07T08:26:32.702Z,6.23
2022-09-07T08:28:59.264Z,5.87
2022-09-07T08:31:25.709Z,5.90
2022-09-07T08:33:52.215Z,5.73
2022-09-07T08:36:20.249Z,5.40
2022-09-07T08:38:47.484Z,4.57
2022-09-07T08:41:44.848Z,4.68
2022-09-07T08:44:43.642Z,4.43
2022-09-07T08:47:28.674Z,4.20
2022-09-07T08:50:04.096Z,3.72
2022-09-07T08:52:40.935Z,3.67
2022-09-07T08:55:33.383Z,4.30
2022-09-07T08:58:45.361Z,4.20
2022-09-07T09:01:33.293Z,3.50
2022-09-07T09:04:16.919Z,4.10
2022-09-07T09:07:02.495Z,3.57
2022-09-07T09:09:40.109Z,4.07
2022-09-07T09:12:27.247Z,3.83
2022-09-07T09:15:09.019Z,4.43
2022-09-07T09:17:45.766Z,3.67
2022-09-07T09:20:24.276Z,3.90
2022-09-07T09:23:13.832Z,3.60
2022-09-07T09:25:47.259Z,3.87
2022-09-07T09:28:13.867Z,3.60
2022-09-07T09:30:40.292Z,3.90
2022-09-07T09:33:18.961Z,3.70
2022-09-07T09:35:49.940Z,3.35
2022-09-07T09:38:36.221Z,4.30
2022-09-07T09:41:11.778Z,3.80
2022-09-07T09:43:48.161Z,3.35
2022-09-07T09:46:27.281Z,2.88
2022-09-07T09:48:58.142Z,3.05
2022-09-07T09:54:26.217Z,3.25
2022-09-07T09:56:53.325Z,3.47
2022-09-07T10:05:35.218Z,3.53
2022-09-07T10:08:02.541Z,3.20
2022-09-07T10:10:29.784Z,3.20
2022-09-07T10:12:56.626Z,3.20
2022-09-07T10:15:40.469Z,4.15
2022-09-07T10:18:15.845Z,3.13
2022-09-07T10:20:42.236Z,2.95
2022-09-07T10:23:20.796Z,3.40
2022-09-07T10:25:47.571Z,2.90
2022-09-07T10:28:17.865Z,3.38
2022-09-07T10:30:53.258Z,2.92
2022-09-07T10:36:58.878Z,2.55
2022-09-07T10:39:30.520Z,2.72
2022-09-07T10:42:09.959Z,2.75
2022-09-07T10:44:48.646Z,2.40
2022-09-07T10:47:30.269Z,2.60
2022-09-07T10:50:23.996Z,2.80
2022-09-07T10:53:39.673Z,2.83
2022-09-07T10:56:25.946Z,2.42
2022-09-07T10:59:25.568Z,2.60
2022-09-07T11:02:00.389Z,2.70
2022-09-07T11:04:29.814Z,2.45
2022-09-07T11:07:15.722Z,2.85
2022-09-07T11:09:55.233Z,2.13
2022-09-07T11:12:30.358Z,2.45
2022-09-07T11:15:15.708Z,2.25
2022-09-07T11:17:52.790Z,1.80
2022-09-07T11:20:31.058Z,2.03
2022-09-07T11:23:18.298Z,1.98
2022-09-07T11:26:11.371Z,2.30
2022-09-07T11:28:46.287Z,2.10
2022-09-07T11:31:22.011Z,2.25
2022-09-07T11:36:59.041Z,2.35
2022-09-07T11:39:30.846Z,2.33
2022-09-07T11:45:05.164Z,1.60
2022-09-07T11:47:39.444Z,1.60
2022-09-07T11:50:16.052Z,1.80
2022-09-07T11:52:53.494Z,1.90
2022-09-07T11:55:25.739Z,1.50
2022-09-07T11:58:23.142Z,1.63
2022-09-07T12:01:11.095Z,1.65
2022-09-07T12:04:02.326Z,1.50
2022-09-07T12:07:07.203Z,1.80
2022-09-07T12:10:04.145Z,1.75
2022-09-07T12:12:30.851Z,1.85
2022-09-07T12:15:22.220Z,1.67
2022-09-07T12:18:05.306Z,1.70
2022-09-07T12:20:48.440Z,2.08
2022-09-07T12:23:14.769Z,1.77
2022-09-07T12:25:42.505Z,2.10
2022-09-07T12:28:21.696Z,1.98
2022-09-07T12:30:55.942Z,1.98
2022-09-07T12:33:34.913Z,1.83
2022-09-07T12:36:02.722Z,1.73
2022-09-07T12:38:32.255Z,1.98
2022-09-07T12:41:23.536Z,2.08
2022-09-07T12:43:49.933Z,2.00
2022-09-07T12:46:35.448Z,1.80
2022-09-07T12:49:28.407Z,1.88
2022-09-07T12:52:33.704Z,2.15
2022-09-07T12:55:29.514Z,2.03
2022-09-07T12:58:09.461Z,2.35
2022-09-07T13:00:59.585Z,2.38
2022-09-07T13:03:52.433Z,2.28
2022-09-07T13:07:02.670Z,2.30
2022-09-07T13:09:37.815Z,2.40
2022-09-07T13:15:33.329Z,2.25
2022-09-07T13:17:59.792Z,2.00
2022-09-07T13:20:36.123Z,1.80
2022-09-07T13:23:22.710Z,1.90
2022-09-07T13:25:52.464Z,1.73
2022-09-07T13:28:25.156Z,2.10
2022-09-07T13:31:02.241Z,2.42
2022-09-07T13:33:28.570Z,2.30
2022-09-07T13:36:00.917Z,2.00
2022-09-07T13:38:29.697Z,1.90
2022-09-07T13:41:13.285Z,1.80
2022-09-07T13:43:40.227Z,2.00
2022-09-07T13:46:38.686Z,2.05
2022-09-07T13:49:31.190Z,1.80
2022-09-07T13:52:13.541Z,1.95
2022-09-07T13:55:03.148Z,2.00
2022-09-07T13:57:45.577Z,1.40
2022-09-07T14:00:17.235Z,1.77
2022-09-07T14:02:44.281Z,1.80
2022-09-07T14:05:16.896Z,2.10
2022-09-07T14:07:47.741Z,1.92
2022-09-07T14:10:20.218Z,1.88
2022-09-07T14:12:46.994Z,1.90
2022-09-07T14:15:25.497Z,1.67
2022-09-07T14:18:06.496Z,1.65
2022-09-07T14:20:58.663Z,1.83
2022-09-07T14:23:29.794Z,1.95
2022-09-07T14:26:16.894Z,1.58
2022-09-07T14:28:46.159Z,1.70
2022-09-07T14:31:15.248Z,1.35
2022-09-07T14:33:58.112Z,1.80
2022-09-07T14:36:45.428Z,1.27
2022-09-07T14:39:15.310Z,1.45
2022-09-07T14:41:43.009Z,1.60
2022-09-07T14:44:27.765Z,1.70
2022-09-07T14:46:56.729Z,1.65
2022-09-07T14:49:24.502Z,1.80
2022-09-07T14:51:53.004Z,1.60
2022-09-07T14:54:32.787Z,2.15
2022-09-07T14:57:01.736Z,2.03
2022-09-07T14:59:43.187Z,1.85
2022-09-07T15:02:18.899Z,1.42
2022-09-07T15:04:47.349Z,1.70
2022-09-07T15:07:30.429Z,1.67
2022-09-07T15:10:12.726Z,1.70
2022-09-07T15:12:42.987Z,1.60
2022-09-07T15:15:46.750Z,1.33
2022-09-07T15:18:54.405Z,2.20
2022-09-07T15:21:23.058Z,1.80
2022-09-07T15:23:54.949Z,1.70
2022-09-07T15:29:11.466Z,1.63
2022-09-07T15:31:42.196Z,1.70
2022-09-07T15:34:16.046Z,1.80
2022-09-07T15:36:48.756Z,1.45
2022-09-07T15:39:27.934Z,1.67
2022-09-07T15:41:54.590Z,1.73
2022-09-07T15:44:25.257Z,1.65
2022-09-07T15:49:47.481Z,1.40
2022-09-07T15:52:15.999Z,1.70
2022-09-07T15:54:43.409Z,1.50
2022-09-07T15:59:56.588Z,3.30
2022-09-07T16:05:10.280Z,2.10
2022-09-07T16:10:23.176Z,1.77
2022-09-07T16:13:10.908Z,1.60
2022-09-07T16:15:45.084Z,1.77
2022-09-07T16:18:16.433Z,2.03
2022-09-07T16:20:43.733Z,2.05
2022-09-07T16:23:15.990Z,2.00
2022-09-07T16:25:55.211Z,2.00
2022-09-07T16:28:21.656Z,2.00
2022-09-07T16:30:48.182Z,2.17
2022-09-07T16:33:15.136Z,1.88
2022-09-07T16:35:41.569Z,1.80
2022-09-07T16:40:54.268Z,2.00
2022-09-07T16:43:20.667Z,2.20
2022-09-07T16:46:02.982Z,2.30
2022-09-07T16:48:31.305Z,1.98
2022-09-07T16:51:01.959Z,1.80
2022-09-07T16:53:31.508Z,2.17
2022-09-07T16:56:02.526Z,2.00
2022-09-07T16:58:37.250Z,1.90
2022-09-07T17:01:05.348Z,1.95
2022-09-07T17:03:31.890Z,1.88
2022-09-07T17:06:02.479Z,2.28
2022-09-07T17:08:29.544Z,2.30
2022-09-07T17:11:07.610Z,2.25
2022-09-07T17:13:35.874Z,2.58
2022-09-07T17:16:11.292Z,2.75
2022-09-07T17:21:24.989Z,2.10
2022-09-07T17:23:55.549Z,2.28
2022-09-07T17:26:23.689Z,2.90
2022-09-07T17:28:54.623Z,2.92
2022-09-07T17:34:13.546Z,3.25
2022-09-07T17:36:40.521Z,2.20
2022-09-07T17:39:16.366Z,2.25
2022-09-07T17:41:44.355Z,2.08
2022-09-07T17:44:11.509Z,1.90
2022-09-07T17:46:37.940Z,2.55
2022-09-07T17:49:05.248Z,2.20
2022-09-07T17:51:32.787Z,2.28
2022-09-07T17:54:09.561Z,2.80
2022-09-07T17:56:37.126Z,2.10
2022-09-07T18:01:50.553Z,2.72
2022-09-07T18:04:17.164Z,2.25
2022-09-07T18:06:43.554Z,2.22
2022-09-07T18:09:11.310Z,2.10
2022-09-07T18:11:46.381Z,2.40
2022-09-07T18:14:14.494Z,2.15
2022-09-07T18:16:41.912Z,2.30
2022-09-07T18:19:08.682Z,2.00
2022-09-07T18:21:37.506Z,2.50
2022-09-07T18:24:13.288Z,2.50
2022-09-07T18:26:40.134Z,2.38
2022-09-07T18:29:25.864Z,2.45
2022-09-07T18:31:55.255Z,2.50
2022-09-07T18:34:21.951Z,2.13
2022-09-07T18:36:48.377Z,2.20
2022-09-07T18:39:15.322Z,2.17
2022-09-07T18:41:42.096Z,2.50
2022-09-07T18:45:27.061Z,1.95
2022-09-07T18:46:54.972Z,2.58
2022-09-07T18:49:21.302Z,2.47
2022-09-07T18:54:34.035Z,2.65
2022-09-07T18:57:00.580Z,2.55
2022-09-07T18:59:27.041Z,2.67
2022-09-07T19:01:54.145Z,2.30
2022-09-07T19:04:21.166Z,2.50
2022-09-07T19:06:48.059Z,2.88
2022-09-07T19:09:14.614Z,2.33
2022-09-07T19:11:42.388Z,2.70
2022-09-07T19:14:08.957Z,2.72
2022-09-07T19:16:36.284Z,2.58
2022-09-07T19:19:06.471Z,2.65
2022-09-07T19:21:35.515Z,2.40
2022-09-07T19:24:04.731Z,2.78
2022-09-07T19:26:37.021Z,2.70
2022-09-07T19:29:08.709Z,2.63
2022-09-07T19:31:35.168Z,2.63
2022-09-07T19:34:02.710Z,2.72
2022-09-07T19:36:32.305Z,2.70
2022-09-07T19:38:59.865Z,2.47
2022-09-07T19:41:27.425Z,2.70
2022-09-07T19:43:54.025Z,2.40
2022-09-07T19:46:24.852Z,2.40
2022-09-07T19:48:51.608Z,2.53
2022-09-07T19:51:18.340Z,2.70
2022-09-07T19:53:46.529Z,2.35
2022-09-07T19:56:14.407Z,2.28
2022-09-07T19:58:44.106Z,3.03
2022-09-07T20:01:17.226Z,2.33
2022-09-07T20:03:46.626Z,2.50
2022-09-07T20:06:15.137Z,2.67
2022-09-07T20:08:42.796Z,2.03
2022-09-07T20:11:11.784Z,2.37
2022-09-07T20:13:38.936Z,2.27
2022-09-07T20:16:16.827Z,2.20
2022-09-07T20:18:44.223Z,2.00
2022-09-07T20:21:16.702Z,2.37
2022-09-07T20:23:43.853Z,2.20
2022-09-07T20:26:12.258Z,2.30
2022-09-07T20:28:39.898Z,2.30
2022-09-07T20:31:08.486Z,2.43
2022-09-07T20:33:35.549Z,2.13
2022-09-07T20:36:07.638Z,2.20
2022-09-07T20:38:54.693Z,2.10
2022-09-07T20:41:28.564Z,1.80
2022-09-07T20:43:56.015Z,1.87
2022-09-07T20:46:22.967Z,1.97
2022-09-07T20:48:49.456Z,1.90
2022-09-07T20:51:20.885Z,1.40
2022-09-07T20:53:49.178Z,2.07
2022-09-07T20:56:18.952Z,1.77
2022-09-07T20:58:47.714Z,1.90
2022-09-07T21:01:18.060Z,1.70
2022-09-07T21:03:49.970Z,1.70
2022-09-07T21:06:17.433Z,1.63
2022-09-07T21:08:44.983Z,1.63
2022-09-07T21:11:16.876Z,1.90
2022-09-07T21:13:43.487Z,1.90
2022-09-07T21:16:12.330Z,1.70
2022-09-07T21:18:39.851Z,1.90
2022-09-07T21:21:22.401Z,2.00
2022-09-07T21:23:53.742Z,2.17
2022-09-07T21:26:21.326Z,2.00
2022-09-07T21:28:47.948Z,2.10
2022-09-07T21:31:14.340Z,2.00
2022-09-07T21:33:40.887Z,1.80
2022-09-07T21:36:13.016Z,2.13
2022-09-07T21:38:41.387Z,1.70
2022-09-07T21:41:13.868Z,2.00
2022-09-07T21:43:40.950Z,1.70
2022-09-07T21:46:16.152Z,1.77
2022-09-07T21:48:43.910Z,1.80
2022-09-07T21:51:10.265Z,1.80
2022-09-07T21:53:36.608Z,1.70
2022-09-07T21:56:06.457Z,2.10
2022-09-07T21:58:33.303Z,1.57
2022-09-07T22:01:03.261Z,1.97
2022-09-07T22:03:29.889Z,1.40
2022-09-07T22:05:56.268Z,1.87
2022-09-07T22:08:22.606Z,1.60
2022-09-07T22:10:49.139Z,2.03
2022-09-07T22:13:15.597Z,1.40
2022-09-07T22:15:42.424Z,1.60
2022-09-07T22:18:12.095Z,1.23
2022-09-07T22:20:39.001Z,1.60
2022-09-07T22:23:05.471Z,1.73
2022-09-07T22:25:32.678Z,1.63
2022-09-07T22:27:59.438Z,1.40
2022-09-07T22:30:26.375Z,1.60
2022-09-07T22:32:53.060Z,1.47
2022-09-07T22:35:19.945Z,1.40
2022-09-07T22:37:46.407Z,1.47
2022-09-07T22:40:14.616Z,1.60
2022-09-07T22:42:41.262Z,1.10
2022-09-07T22:45:08.545Z,1.60
2022-09-07T22:47:34.963Z,1.67
2022-09-07T22:50:01.310Z,1.43
2022-09-07T22:52:27.659Z,1.77
2022-09-07T22:54:54.064Z,1.60
2022-09-07T22:57:20.446Z,1.77
2022-09-07T22:59:46.950Z,1.50
2022-09-07T23:02:13.299Z,1.57
2022-09-07T23:04:39.775Z,1.60
2022-09-07T23:07:07.728Z,1.60
2022-09-07T23:09:34.105Z,1.70
2022-09-07T23:12:00.486Z,1.70
2022-09-07T23:14:26.809Z,1.83
2022-09-07T23:16:53.238Z,1.73
2022-09-07T23:19:20.407Z,1.90
2022-09-07T23:21:46.747Z,1.70
2022-09-07T23:24:15.208Z,1.70
2022-09-07T23:26:42.221Z,1.60
2022-09-07T23:29:11.385Z,1.80
2022-09-07T23:31:37.806Z,1.87
2022-09-07T23:34:04.921Z,1.37
2022-09-07T23:36:31.417Z,1.60
2022-09-07T23:38:59.516Z,1.90
2022-09-07T23:41:26.631Z,2.03
2022-09-07T23:43:53.994Z,1.60
2022-09-07T23:46:21.053Z,1.47
2022-09-07T23:48:48.279Z,1.80
2022-09-07T23:51:16.209Z,2.30
2022-09-07T23:53:44.118Z,2.30
2022-09-07T23:56:10.454Z,2.63
2022-09-07T23:58:36.852Z,2.17
